Time;durP1;ratioP1;P1;durP2;ratioP2;P2;SDS_P1;SDS_P2;PMS_P1;PMS_P2;Temp;Humidity;BMP_temperature;BMP_pressure;BME280_temperature;BME280_humidity;BME280_pressure;Samples;Min_cycle;Max_cycle;Signal;HPM_P1;HPM_P2
2023/04/30 00:02:23;;;;;;;4.55;2.97;;;;;;;1.36;100.00;99393.31;4930283;28;20105;-57
2023/04/30 00:04:54;;;;;;;5.32;3.10;;;;;;;1.37;100.00;99405.34;4929512;28;20385;-56
2023/04/30 00:07:26;;;;;;;2.38;1.70;;;;;;;0.77;100.00;99289.13;4920390;28;20060;-58
2023/04/30 00:09:56;;;;;;;5.35;2.88;;;;;;;1.38;100.00;99386.47;4922749;28;20063;-55
2023/04/30 00:12:27;;;;;;;1.67;1.40;;;;;;;1.43;100.00;99380.50;4888694;28;20624;-57
2023/04/30 00:14:58;;;;;;;1.45;1.23;;;;;;;1.43;100.00;99384.81;4891979;28;20481;-57
2023/04/30 00:17:28;;;;;;;3.28;1.20;;;;;;;1.45;100.00;99376.22;4891559;28;20176;-56
2023/04/30 00:19:59;;;;;;;1.48;1.23;;;;;;;1.45;100.00;99368.50;4906954;28;20292;-56
2023/04/30 00:22:32;;;;;;;1.20;1.10;;;;;;;1.39;100.00;99350.44;4917445;28;20056;-58
2023/04/30 00:25:02;;;;;;;2.03;1.30;;;;;;;1.42;100.00;99347.03;4932245;28;20132;-56
2023/04/30 00:27:33;;;;;;;2.13;1.40;;;;;;;1.45;100.00;99352.22;4931370;28;20048;-55
2023/04/30 00:30:04;;;;;;;2.03;1.48;;;;;;;1.45;100.00;99347.06;4930509;28;20596;-56
2023/04/30 00:32:34;;;;;;;4.50;2.10;;;;;;;1.50;100.00;99337.66;4932103;28;20146;-56
2023/04/30 00:35:06;;;;;;;3.05;2.17;;;;;;;1.09;100.00;99261.06;4928443;28;20437;-55
2023/04/30 00:37:38;;;;;;;6.75;3.45;;;;;;;1.56;100.00;99336.81;4916547;28;20059;-55
2023/04/30 00:40:10;;;;;;;4.65;2.85;;;;;;;1.60;100.00;99331.69;4926462;28;20043;-56
2023/04/30 00:42:40;;;;;;;4.88;3.40;;;;;;;1.57;100.00;99326.50;4894815;28;20436;-56
2023/04/30 00:45:11;;;;;;;3.30;2.30;;;;;;;1.50;100.00;99324.78;4902588;28;20602;-54
2023/04/30 00:47:42;;;;;;;5.35;2.90;;;;;;;1.51;100.00;99311.03;4917475;28;20061;-56
2023/04/30 00:50:14;;;;;;;6.13;2.13;;;;;;;1.51;100.00;99311.03;4909856;28;20561;-55
2023/04/30 00:52:47;;;;;;;3.00;2.30;;;;;;;1.43;100.00;99294.69;4911869;28;20088;-54
2023/04/30 00:55:18;;;;;;;3.85;2.13;;;;;;;1.35;100.00;99263.78;4912776;28;20048;-55
2023/04/30 00:57:50;;;;;;;4.93;2.70;;;;;;;1.49;100.00;99281.84;4908187;28;20049;-56
2023/04/30 01:00:23;;;;;;;4.50;2.45;;;;;;;1.52;100.00;99281.84;4906848;28;20388;-55
2023/04/30 01:02:56;;;;;;;3.80;2.47;;;;;;;1.55;100.00;99265.56;4917540;28;20379;-56
2023/04/30 01:05:27;;;;;;;3.63;2.47;;;;;;;1.59;100.00;99283.59;4903572;28;20049;-54
2023/04/30 01:07:59;;;;;;;3.17;2.15;;;;;;;1.59;100.00;99260.44;4924404;28;20077;-54
2023/04/30 01:10:42;;;;;;;6.28;2.53;;;;;;;1.53;100.00;99251.84;4925732;28;20053;-55
2023/04/30 01:13:22;;;;;;;7.07;3.20;;;;;;;1.65;100.00;99252.75;4884445;28;20059;-54
2023/04/30 01:16:01;;;;;;;5.63;3.28;;;;;;;1.66;100.00;99218.41;4900314;28;20144;-56
2023/04/30 01:18:40;;;;;;;4.30;2.80;;;;;;;1.71;100.00;99211.53;4905511;28;20102;-56
2023/04/30 01:21:13;;;;;;;4.45;2.80;;;;;;;1.65;100.00;99227.00;4899411;28;20136;-56
2023/04/30 01:24:11;;;;;;;3.08;2.28;;;;;;;1.46;100.00;99209.75;4897881;28;20057;-56
2023/04/30 01:27:00;;;;;;;3.88;2.08;;;;;;;1.62;100.00;99227.00;4893335;28;20048;-55
2023/04/30 01:30:21;;;;;;;4.45;1.98;;;;;;;1.51;100.00;99187.47;4934656;28;20045;-56
2023/04/30 01:32:55;;;;;;;3.03;1.95;;;;;;;1.61;100.00;99188.34;4964642;28;20314;-54
2023/04/30 01:35:54;;;;;;;2.88;2.05;;;;;;;1.51;100.00;99166.88;4998998;28;20057;-53
2023/04/30 01:38:42;;;;;;;6.35;2.45;;;;;;;1.58;100.00;99172.91;4978208;28;20062;-51
2023/04/30 01:41:21;;;;;;;2.10;1.60;;;;;;;1.53;100.00;99154.00;4943857;28;20603;-58
2023/04/30 01:44:03;;;;;;;3.38;1.80;;;;;;;1.48;100.00;99125.69;4906472;28;20454;-55
2023/04/30 01:46:34;;;;;;;2.90;1.70;;;;;;;1.46;100.00;99119.66;4908763;28;20059;-56
2023/04/30 01:49:16;;;;;;;2.78;1.80;;;;;;;1.50;100.00;99103.38;4915344;28;20067;-55
2023/04/30 01:51:48;;;;;;;2.88;2.03;;;;;;;1.61;100.00;99109.38;4920762;28;20048;-56
2023/04/30 01:54:29;;;;;;;3.03;1.42;;;;;;;1.62;100.00;99112.81;4917279;28;20125;-54
2023/04/30 01:57:04;;;;;;;2.40;1.70;;;;;;;1.52;100.00;99081.03;4909770;28;20102;-54
2023/04/30 01:59:39;;;;;;;2.50;1.85;;;;;;;1.65;100.00;99093.09;4935641;28;20064;-56
2023/04/30 02:02:10;;;;;;;2.63;2.10;;;;;;;1.58;100.00;99086.22;4915286;28;20130;-56
2023/04/30 02:04:42;;;;;;;3.30;1.90;;;;;;;1.58;100.00;99073.34;4934413;28;20053;-57
2023/04/30 02:07:18;;;;;;;3.53;1.80;;;;;;;1.58;100.00;99078.50;4932075;28;20059;-56
2023/04/30 02:09:49;;;;;;;4.03;1.80;;;;;;;1.52;100.00;99045.00;4917825;28;20061;-55
2023/04/30 02:12:20;;;;;;;1.90;1.42;;;;;;;1.51;100.00;99030.44;4913737;28;20123;-57
2023/04/30 02:14:51;;;;;;;2.08;1.30;;;;;;;1.58;100.00;99024.44;4897068;28;20057;-55
2023/04/30 02:17:22;;;;;;;2.40;1.45;;;;;;;1.64;100.00;99016.69;4897388;28;20087;-56
2023/04/30 02:19:55;;;;;;;1.20;1.08;;;;;;;1.54;100.00;99007.25;4897300;28;20495;-56
2023/04/30 02:22:26;;;;;;;3.70;1.73;;;;;;;1.49;100.00;98975.50;4908755;28;20060;-55
2023/04/30 02:24:56;;;;;;;2.03;1.08;;;;;;;1.77;100.00;99006.38;4919818;28;20048;-57
2023/04/30 02:27:28;;;;;;;2.83;1.30;;;;;;;1.81;100.00;98990.06;4920806;28;20066;-55
2023/04/30 02:29:59;;;;;;;2.05;1.35;;;;;;;1.75;100.00;98984.91;4930755;28;20582;-57
2023/04/30 02:32:30;;;;;;;3.92;1.40;;;;;;;1.66;100.00;98991.78;4933687;28;20548;-54
2023/04/30 02:35:03;;;;;;;1.67;1.25;;;;;;;1.47;100.00;98972.06;4949617;28;20054;-57
2023/04/30 02:37:34;;;;;;;3.55;1.13;;;;;;;1.64;100.00;98975.47;4930738;28;20534;-56
2023/04/30 02:40:05;;;;;;;0.98;0.88;;;;;;;1.53;100.00;98979.81;4930413;28;20048;-56
2023/04/30 02:42:36;;;;;;;1.83;1.20;;;;;;;1.53;100.00;98974.66;4919829;28;20051;-56
2023/04/30 02:45:08;;;;;;;2.50;1.00;;;;;;;1.48;100.00;98966.06;4930211;28;20047;-54
2023/04/30 02:47:39;;;;;;;2.17;1.40;;;;;;;1.46;100.00;98952.34;4931291;28;20048;-54
2023/04/30 02:50:12;;;;;;;1.52;1.17;;;;;;;1.46;100.00;98954.91;4926173;28;20060;-56
2023/04/30 02:52:43;;;;;;;1.40;1.13;;;;;;;1.51;100.00;98925.72;4930535;28;20669;-56
2023/04/30 02:55:15;;;;;;;1.98;1.60;;;;;;;1.45;100.00;98950.63;4930962;28;20048;-57
2023/04/30 02:57:46;;;;;;;1.23;1.10;;;;;;;1.35;100.00;98948.91;4930628;28;20056;-56
2023/04/30 03:00:17;;;;;;;1.85;1.30;;;;;;;1.27;100.00;98944.66;4916221;28;20055;-57
2023/04/30 03:02:48;;;;;;;2.90;1.23;;;;;;;1.22;100.00;98943.78;4917087;28;20040;-57
2023/04/30 03:05:21;;;;;;;1.15;1.05;;;;;;;1.16;100.00;98936.06;4913305;28;20789;-59
2023/04/30 03:07:52;;;;;;;2.03;1.30;;;;;;;1.17;100.00;98930.03;4930651;28;20478;-56
2023/04/30 03:10:23;;;;;;;1.60;1.27;;;;;;;1.17;100.00;98942.91;4934473;28;20443;-55
2023/04/30 03:12:54;;;;;;;4.72;2.20;;;;;;;1.16;100.00;98933.47;4934060;28;20063;-56
2023/04/30 03:15:25;;;;;;;2.35;1.67;;;;;;;1.12;100.00;98930.91;4930281;28;20079;-55
2023/04/30 03:17:56;;;;;;;1.17;1.08;;;;;;;1.09;100.00;98934.31;4933015;28;20051;-57
2023/04/30 03:20:29;;;;;;;2.85;1.67;;;;;;;0.95;100.00;98907.72;4930440;28;20101;-56
2023/04/30 03:23:00;;;;;;;2.22;1.45;;;;;;;0.96;100.00;98919.75;4926843;28;20064;-55
2023/04/30 03:25:30;;;;;;;2.38;1.88;;;;;;;0.94;100.00;98906.03;4930464;28;20085;-55
2023/04/30 03:28:01;;;;;;;2.90;2.20;;;;;;;0.89;100.00;98887.16;4910467;28;20052;-56
2023/04/30 03:30:33;;;;;;;2.15;1.80;;;;;;;0.91;100.00;98895.75;4911353;28;20044;-56
2023/04/30 03:33:05;;;;;;;3.65;2.30;;;;;;;0.89;100.00;98882.88;4908151;28;20126;-56
2023/04/30 03:35:38;;;;;;;4.10;2.55;;;;;;;0.92;100.00;98897.44;4898226;28;20052;-53
2023/04/30 03:38:09;;;;;;;1.90;1.58;;;;;;;0.88;100.00;98885.47;4904141;28;22031;-55
2023/04/30 03:40:40;;;;;;;1.70;1.60;;;;;;;0.88;100.00;98885.47;4906285;28;20049;-55
2023/04/30 03:43:11;;;;;;;3.15;1.90;;;;;;;0.89;100.00;98876.88;4897654;28;20492;-50
2023/04/30 03:45:42;;;;;;;2.13;1.63;;;;;;;0.94;100.00;98875.16;4895935;28;20056;-53
2023/04/30 03:48:13;;;;;;;3.65;1.60;;;;;;;0.94;100.00;98876.03;4895462;28;20102;-54
2023/04/30 03:50:46;;;;;;;3.85;1.50;;;;;;;0.86;100.00;98858.03;4907160;28;20056;-56
2023/04/30 03:53:16;;;;;;;2.28;1.70;;;;;;;0.89;100.00;98877.72;4911214;28;20063;-56
2023/04/30 03:55:47;;;;;;;4.15;1.40;;;;;;;0.87;100.00;98874.31;4920831;28;20123;-56
2023/04/30 03:58:19;;;;;;;2.92;1.75;;;;;;;0.82;100.00;98855.44;4915202;28;20501;-56
2023/04/30 04:00:50;;;;;;;3.83;1.95;;;;;;;0.49;100.00;98843.44;4912336;28;21909;-58
2023/04/30 04:03:22;;;;;;;4.97;2.28;;;;;;;0.74;100.00;98868.28;4931866;28;20051;-55
2023/04/30 04:05:54;;;;;;;3.58;1.70;;;;;;;0.60;100.00;98834.88;4933573;28;20193;-55
2023/04/30 04:08:25;;;;;;;2.67;1.70;;;;;;;0.78;100.00;98853.75;4911385;28;20267;-54
2023/04/30 04:10:56;;;;;;;4.07;1.90;;;;;;;0.74;100.00;98832.31;4920405;28;20072;-56
2023/04/30 04:13:27;;;;;;;2.60;1.83;;;;;;;0.79;100.00;98843.44;4932699;28;20044;-53
2023/04/30 04:15:58;;;;;;;3.97;2.10;;;;;;;0.78;100.00;98828.88;4932864;28;20056;-56
2023/04/30 04:18:29;;;;;;;5.95;2.55;;;;;;;0.71;100.00;98837.44;4926346;28;21261;-53
2023/04/30 04:21:02;;;;;;;5.63;2.00;;;;;;;0.70;100.00;98829.72;4915489;28;20057;-54
2023/04/30 04:23:33;;;;;;;2.70;1.90;;;;;;;0.66;100.00;98826.31;4911317;28;20098;-56
2023/04/30 04:26:05;;;;;;;2.50;1.83;;;;;;;0.62;100.00;98814.31;4925164;28;20387;-56
2023/04/30 04:28:36;;;;;;;3.33;1.98;;;;;;;0.59;100.00;98828.00;4913273;28;20048;-56
2023/04/30 04:31:07;;;;;;;2.17;1.73;;;;;;;0.55;100.00;98810.00;4929915;28;20102;-56
2023/04/30 04:33:38;;;;;;;2.90;1.90;;;;;;;0.54;100.00;98818.59;4928138;28;20059;-56
2023/04/30 04:36:12;;;;;;;2.83;2.03;;;;;;;0.51;100.00;98818.59;4916639;28;20065;-56
2023/04/30 04:38:43;;;;;;;2.60;2.03;;;;;;;0.47;100.00;98812.56;4910733;28;20053;-54
2023/04/30 04:41:14;;;;;;;3.40;2.30;;;;;;;0.56;100.00;98806.59;4910211;28;20044;-56
2023/04/30 04:43:45;;;;;;;3.17;1.65;;;;;;;0.59;100.00;98791.16;4910238;28;20059;-56
2023/04/30 04:46:16;;;;;;;3.17;1.85;;;;;;;0.72;100.00;98808.31;4899036;28;20045;-56
2023/04/30 04:48:47;;;;;;;3.50;2.00;;;;;;;0.73;100.00;98807.47;4910273;28;20059;-56
2023/04/30 04:51:20;;;;;;;3.65;2.40;;;;;;;0.76;100.00;98774.03;4909787;28;20117;-54
2023/04/30 04:53:51;;;;;;;2.97;1.70;;;;;;;0.80;100.00;98786.03;4901827;28;21417;-57
2023/04/30 04:56:22;;;;;;;1.38;1.27;;;;;;;0.78;100.00;98795.47;4910373;28;20048;-55
2023/04/30 04:58:52;;;;;;;1.60;1.20;;;;;;;0.73;100.00;98794.59;4910176;28;20119;-56
2023/04/30 05:01:23;;;;;;;2.13;1.20;;;;;;;0.67;100.00;98789.44;4910178;28;20053;-57
2023/04/30 05:03:54;;;;;;;1.52;1.10;;;;;;;0.66;100.00;98780.03;4911146;28;20059;-54
2023/04/30 05:06:29;;;;;;;1.48;1.00;;;;;;;0.67;100.00;98756.03;4913236;28;20064;-57
2023/04/30 05:09:07;;;;;;;1.10;1.00;;;;;;;0.52;100.00;98727.78;4888449;28;20053;-55
2023/04/30 05:11:40;;;;;;;2.25;0.80;;;;;;;0.66;100.00;98756.91;4913377;28;20121;-57
2023/04/30 05:14:11;;;;;;;0.80;0.80;;;;;;;0.68;100.00;98765.47;4905473;28;20053;-55
2023/04/30 05:16:42;;;;;;;0.80;0.80;;;;;;;0.61;100.00;98738.06;4903776;28;20118;-56
2023/04/30 05:19:14;;;;;;;1.90;0.90;;;;;;;0.60;100.00;98738.91;4901328;28;20056;-54
2023/04/30 05:21:47;;;;;;;1.73;0.95;;;;;;;0.52;100.00;98738.06;4908839;28;20068;-53
2023/04/30 05:24:18;;;;;;;0.70;0.70;;;;;;;0.55;100.00;98743.19;4913370;28;20131;-56
2023/04/30 05:26:49;;;;;;;1.90;0.90;;;;;;;0.56;100.00;98740.63;4913724;28;20052;-56
2023/04/30 05:29:20;;;;;;;1.23;0.90;;;;;;;0.57;100.00;98736.34;4908749;28;20148;-57
2023/04/30 05:31:51;;;;;;;1.70;0.93;;;;;;;0.55;100.00;98722.63;4913106;28;20049;-57
2023/04/30 05:34:22;;;;;;;1.00;0.93;;;;;;;0.55;100.00;98727.75;4913235;28;20135;-55
2023/04/30 05:36:55;;;;;;;1.13;1.00;;;;;;;0.58;100.00;98738.06;4912883;28;20053;-57
2023/04/30 05:39:26;;;;;;;2.75;1.20;;;;;;;0.57;100.00;98733.75;4912908;28;20277;-56
2023/04/30 05:41:57;;;;;;;4.53;1.33;;;;;;;0.58;100.00;98748.34;4912664;28;20064;-56
2023/04/30 05:44:29;;;;;;;2.20;1.20;;;;;;;0.54;100.00;98762.03;4913900;28;20139;-55
2023/04/30 05:47:01;;;;;;;2.60;1.42;;;;;;;0.55;100.00;98772.34;4904230;28;20048;-56
2023/04/30 05:49:33;;;;;;;2.00;1.10;;;;;;;0.55;100.00;98784.31;4914057;28;20709;-54
2023/04/30 05:52:07;;;;;;;1.17;1.08;;;;;;;0.53;100.00;98752.63;4913849;28;20049;-57
2023/04/30 05:54:38;;;;;;;1.60;1.10;;;;;;;0.51;100.00;98759.47;4913399;28;20761;-56
2023/04/30 05:57:08;;;;;;;1.55;1.13;;;;;;;0.55;100.00;98756.03;4921193;28;20081;-56
2023/04/30 05:59:39;;;;;;;1.75;1.10;;;;;;;0.58;100.00;98763.78;4934617;28;20676;-55
2023/04/30 06:02:10;;;;;;;3.60;1.42;;;;;;;0.53;100.00;98740.63;4928991;28;20079;-55
2023/04/30 06:04:42;;;;;;;1.00;0.90;;;;;;;0.64;100.00;98748.31;4931241;28;20048;-56
2023/04/30 06:07:14;;;;;;;0.90;0.90;;;;;;;0.68;100.00;98729.47;4935438;28;20654;-56
2023/04/30 06:09:45;;;;;;;1.00;0.90;;;;;;;0.64;100.00;98725.19;4930078;28;20718;-56
2023/04/30 06:12:16;;;;;;;0.82;0.82;;;;;;;0.72;100.00;98720.88;4910424;28;20091;-57
2023/04/30 06:14:47;;;;;;;1.15;1.00;;;;;;;0.69;100.00;98726.03;4896133;28;20080;-56
2023/04/30 06:17:18;;;;;;;1.17;1.00;;;;;;;0.73;100.00;98730.34;4902551;28;20144;-57
2023/04/30 06:19:50;;;;;;;4.53;1.17;;;;;;;0.72;100.00;98731.19;4910208;28;20096;-56
2023/04/30 06:22:23;;;;;;;2.47;1.17;;;;;;;0.81;100.00;98730.31;4912771;28;20044;-54
2023/04/30 06:24:56;;;;;;;1.80;1.15;;;;;;;0.55;100.00;98673.78;4912900;28;20052;-56
2023/04/30 06:27:28;;;;;;;1.30;1.17;;;;;;;0.76;100.00;98717.47;4932809;28;20047;-56
2023/04/30 06:30:01;;;;;;;1.38;1.00;;;;;;;0.80;100.00;98708.00;4892521;28;20050;-55
2023/04/30 06:32:32;;;;;;;1.10;1.00;;;;;;;0.83;100.00;98729.47;4901245;28;20403;-54
2023/04/30 06:35:03;;;;;;;1.65;0.93;;;;;;;0.87;100.00;98702.00;4907568;28;20063;-53
2023/04/30 06:37:36;;;;;;;1.67;1.00;;;;;;;0.73;100.00;98696.91;4908293;28;20147;-55
2023/04/30 06:40:08;;;;;;;1.88;1.17;;;;;;;0.63;100.00;98684.94;4911163;28;20052;-53
2023/04/30 06:42:40;;;;;;;1.10;1.00;;;;;;;0.83;100.00;98714.03;4890268;28;20456;-56
2023/04/30 06:45:14;;;;;;;2.63;1.20;;;;;;;0.86;100.00;98716.59;4893695;28;20132;-55
2023/04/30 06:47:45;;;;;;;1.38;1.10;;;;;;;0.89;100.00;98725.16;4893738;28;20049;-56
2023/04/30 06:50:17;;;;;;;2.40;1.45;;;;;;;0.90;100.00;98739.72;4893037;28;20586;-55
2023/04/30 06:52:50;;;;;;;1.45;1.27;;;;;;;0.85;100.00;98717.47;4893387;28;20406;-55
2023/04/30 06:55:21;;;;;;;1.63;1.10;;;;;;;0.86;100.00;98728.59;4885008;28;20050;-56
2023/04/30 06:57:53;;;;;;;1.92;1.27;;;;;;;0.79;100.00;98722.59;4892886;28;20369;-56
2023/04/30 07:00:24;;;;;;;2.33;1.23;;;;;;;0.80;100.00;98734.63;4894873;28;20049;-56
2023/04/30 07:02:56;;;;;;;1.63;1.25;;;;;;;0.77;100.00;98724.31;4891160;28;20656;-55
2023/04/30 07:05:27;;;;;;;1.95;1.35;;;;;;;0.73;100.00;98738.03;4905996;28;20059;-53
2023/04/30 07:08:00;;;;;;;6.38;1.60;;;;;;;0.74;100.00;98734.59;4893159;28;20055;-52
2023/04/30 07:10:31;;;;;;;2.22;1.48;;;;;;;0.73;100.00;98743.19;4885316;28;20050;-55
2023/04/30 07:13:02;;;;;;;2.10;1.30;;;;;;;0.69;100.00;98745.75;4907122;28;20118;-56
2023/04/30 07:15:40;;;;;;;4.15;1.50;;;;;;;0.67;100.00;98740.59;4912150;28;20052;-56
2023/04/30 07:18:12;;;;;;;1.58;1.33;;;;;;;0.60;100.00;98733.75;4909736;28;20049;-57
2023/04/30 07:20:44;;;;;;;4.68;1.40;;;;;;;0.52;100.00;98748.34;4917703;28;20052;-56
2023/04/30 07:23:17;;;;;;;2.83;1.67;;;;;;;0.56;100.00;98743.19;4916024;28;20399;-56
2023/04/30 07:25:47;;;;;;;3.05;2.00;;;;;;;0.08;100.00;98669.56;4914824;28;20052;-57
2023/04/30 07:28:21;;;;;;;4.15;2.03;;;;;;;0.52;100.00;98743.19;4914766;28;20399;-57
2023/04/30 07:30:52;;;;;;;3.42;1.70;;;;;;;0.53;100.00;98739.78;4915475;28;20071;-57
2023/04/30 07:33:23;;;;;;;6.40;1.83;;;;;;;0.53;100.00;98750.06;4917686;28;20064;-55
2023/04/30 07:35:55;;;;;;;2.08;1.40;;;;;;;0.53;100.00;98760.34;4915408;28;20062;-58
2023/04/30 07:38:28;;;;;;;3.10;1.88;;;;;;;0.51;100.00;98752.63;4910865;28;20052;-56
2023/04/30 07:40:58;;;;;;;4.05;2.00;;;;;;;0.56;100.00;98766.31;4915066;28;20059;-57
2023/04/30 07:43:29;;;;;;;3.42;1.80;;;;;;;0.59;100.00;98765.47;4912991;28;20092;-56
2023/04/30 07:46:00;;;;;;;3.42;1.88;;;;;;;0.56;100.00;98765.47;4918976;28;20052;-56
2023/04/30 07:48:31;;;;;;;2.92;1.83;;;;;;;0.58;100.00;98763.78;4915716;28;20517;-56
2023/04/30 07:51:03;;;;;;;4.65;2.10;;;;;;;0.62;100.00;98766.34;4922769;28;20463;-57
2023/04/30 07:53:35;;;;;;;5.38;2.10;;;;;;;0.63;100.00;98772.34;4918463;28;20051;-57
2023/04/30 07:56:07;;;;;;;5.45;2.30;;;;;;;0.58;100.00;98768.91;4914685;28;20048;-57
2023/04/30 07:58:37;;;;;;;5.00;2.28;;;;;;;0.37;100.00;98744.91;4912942;28;20074;-56
2023/04/30 08:01:08;;;;;;;3.13;2.35;;;;;;;0.54;100.00;98772.31;4914459;28;20722;-57
2023/04/30 08:03:38;;;;;;;4.95;2.25;;;;;;;0.52;100.00;98776.59;4913621;28;20087;-56
2023/04/30 08:06:09;;;;;;;3.58;2.10;;;;;;;0.47;100.00;98776.59;4898580;28;20049;-56
2023/04/30 08:08:41;;;;;;;3.33;2.17;;;;;;;0.47;100.00;98791.16;4925131;28;21047;-58
2023/04/30 08:11:12;;;;;;;4.53;2.90;;;;;;;0.45;100.00;98787.72;4919077;28;20376;-56
2023/04/30 08:13:43;;;;;;;6.28;2.30;;;;;;;0.42;100.00;98789.47;4918793;28;20044;-56
2023/04/30 08:16:14;;;;;;;4.97;2.97;;;;;;;0.42;100.00;98792.03;4919169;28;20048;-56
2023/04/30 08:18:45;;;;;;;5.10;2.97;;;;;;;0.35;100.00;98782.59;4914052;28;20060;-56
2023/04/30 08:21:16;;;;;;;7.82;2.83;;;;;;;0.32;100.00;98782.59;4913075;28;20059;-57
2023/04/30 08:23:49;;;;;;;6.05;3.47;;;;;;;0.40;100.00;98790.28;4916628;28;20498;-57
2023/04/30 08:26:19;;;;;;;8.02;2.80;;;;;;;0.35;100.00;98782.59;4915510;28;20773;-56
2023/04/30 08:28:50;;;;;;;5.50;3.00;;;;;;;0.29;100.00;98805.72;4920340;28;20426;-57
2023/04/30 08:31:21;;;;;;;7.88;3.63;;;;;;;0.31;100.00;98801.44;4916312;28;20046;-57
2023/04/30 08:33:51;;;;;;;9.95;3.25;;;;;;;0.31;100.00;98806.56;4916657;28;20071;-56
2023/04/30 08:36:22;;;;;;;4.68;2.78;;;;;;;0.31;100.00;98805.72;4916516;28;20047;-56
2023/04/30 08:38:54;;;;;;;7.97;3.08;;;;;;;0.33;100.00;98804.88;4917216;28;20058;-56
2023/04/30 08:41:27;;;;;;;5.93;2.67;;;;;;;0.21;100.00;98784.28;4915659;28;20060;-56
2023/04/30 08:44:01;;;;;;;7.40;3.25;;;;;;;0.27;100.00;98799.69;4916634;28;20052;-57
2023/04/30 08:46:37;;;;;;;5.53;2.40;;;;;;;0.26;100.00;98790.28;4906559;28;20823;-57
2023/04/30 08:49:08;;;;;;;9.02;2.92;;;;;;;0.23;100.00;98790.31;4915757;28;20064;-57
2023/04/30 08:51:39;;;;;;;5.72;2.85;;;;;;;0.22;100.00;98780.84;4915338;28;20133;-57
2023/04/30 08:54:14;;;;;;;5.32;3.25;;;;;;;0.16;100.00;98770.59;4912705;28;20056;-56
2023/04/30 08:56:45;;;;;;;5.55;3.60;;;;;;;-0.02;100.00;98750.88;4916903;28;20074;-57
2023/04/30 08:59:16;;;;;;;9.05;3.47;;;;;;;0.13;100.00;98780.88;4922804;28;20057;-55
2023/04/30 09:01:47;;;;;;;6.32;2.90;;;;;;;0.10;100.00;98775.69;4918003;28;20044;-58
2023/04/30 09:04:22;;;;;;;7.40;3.65;;;;;;;0.04;100.00;98773.13;4909854;28;20135;-57
2023/04/30 09:06:58;;;;;;;9.45;3.30;;;;;;;-0.02;100.00;98777.41;4919455;28;20052;-57
2023/04/30 09:09:37;;;;;;;7.90;3.80;;;;;;;-0.16;100.00;98758.53;4909193;28;20064;-56
2023/04/30 09:12:16;;;;;;;9.40;4.10;;;;;;;-0.06;100.00;98791.09;4912025;28;20049;-56
2023/04/30 09:15:13;;;;;;;9.55;3.70;;;;;;;-0.08;100.00;98803.06;4913912;28;20054;-56
2023/04/30 09:17:45;;;;;;;7.72;3.67;;;;;;;-0.12;100.00;98811.63;4914373;28;20487;-56
2023/04/30 09:20:22;;;;;;;11.75;4.57;;;;;;;-0.15;100.00;98811.63;4917518;27;20045;-56
2023/04/30 09:23:07;;;;;;;9.65;3.78;;;;;;;-0.16;100.00;98824.44;4925122;28;20063;-56
2023/04/30 09:25:47;;;;;;;9.07;4.60;;;;;;;-0.17;100.00;98828.72;4893908;28;20071;-56
2023/04/30 09:28:18;;;;;;;10.18;4.05;;;;;;;-0.23;100.00;98841.50;4896687;28;20064;-56
2023/04/30 09:30:48;;;;;;;4.15;2.95;;;;;;;-0.26;100.00;98854.34;4905631;28;20527;-57
2023/04/30 09:33:23;;;;;;;10.40;3.22;;;;;;;-0.51;100.00;98813.16;4920601;28;22352;-56
2023/04/30 09:36:10;;;;;;;4.45;2.20;;;;;;;-0.31;100.00;98850.91;4909888;28;20048;-56
2023/04/30 09:39:24;;;;;;;7.18;2.72;;;;;;;-0.57;100.00;98805.44;4896377;28;20809;-56
2023/04/30 09:42:16;;;;;;;4.78;2.70;;;;;;;-0.32;100.00;98846.63;4910180;28;20059;-57
2023/04/30 09:45:18;;;;;;;4.93;2.80;;;;;;;-0.44;100.00;98825.16;4909416;28;20051;-57
2023/04/30 09:48:03;;;;;;;4.80;2.65;;;;;;;-0.36;100.00;98821.78;4899045;28;20048;-56
2023/04/30 09:50:46;;;;;;;5.03;3.03;;;;;;;-0.32;100.00;98836.34;4911010;28;20059;-57
2023/04/30 09:53:18;;;;;;;4.10;2.55;;;;;;;-0.35;100.00;98841.44;4923638;28;20048;-57
2023/04/30 09:55:51;;;;;;;7.35;3.13;;;;;;;-0.30;100.00;98857.72;4921032;28;20064;-56
2023/04/30 09:58:28;;;;;;;6.63;3.38;;;;;;;-0.55;100.00;98805.44;4921718;28;20079;-57
2023/04/30 10:01:01;;;;;;;6.43;2.78;;;;;;;-0.31;100.00;98856.03;4919790;28;20059;-56
2023/04/30 10:03:33;;;;;;;3.17;2.25;;;;;;;-0.59;100.00;98819.13;4910580;28;20776;-56
2023/04/30 10:06:04;;;;;;;5.68;2.50;;;;;;;-0.38;100.00;98850.00;4921634;28;20547;-56
2023/04/30 10:11:48;;;;;;;5.85;2.45;;;;;;;-0.44;100.00;98850.84;4911418;28;20048;-57
2023/04/30 10:14:33;;;;;;;3.17;1.98;;;;;;;-0.50;100.00;98844.81;4910292;28;20160;-57
2023/04/30 10:17:14;;;;;;;4.00;2.75;;;;;;;-0.36;100.00;98867.97;4909648;28;20056;-56
2023/04/30 10:19:58;;;;;;;6.43;2.80;;;;;;;-0.36;100.00;98878.25;4910736;28;20057;-57
2023/04/30 10:22:33;;;;;;;4.65;2.88;;;;;;;-0.59;100.00;98840.50;4908229;28;20649;-56
2023/04/30 10:25:04;;;;;;;5.47;2.60;;;;;;;-0.82;100.00;98806.13;4919580;28;20458;-57
2023/04/30 10:27:37;;;;;;;5.22;2.53;;;;;;;-0.37;100.00;98882.53;4919367;28;20101;-55
2023/04/30 10:30:22;;;;;;;5.53;3.00;;;;;;;-0.46;100.00;98883.31;4921450;28;20062;-58
2023/04/30 10:33:07;;;;;;;4.78;2.63;;;;;;;-0.38;100.00;98895.34;4910656;28;20067;-58
2023/04/30 10:35:47;;;;;;;4.93;2.65;;;;;;;-0.40;100.00;98900.47;4914012;28;20044;-56
2023/04/30 10:38:26;;;;;;;4.05;2.95;;;;;;;-0.50;100.00;98886.75;4920400;28;20140;-57
2023/04/30 10:41:01;;;;;;;4.82;2.50;;;;;;;-0.65;100.00;98876.34;4909179;28;20067;-56
2023/04/30 10:43:34;;;;;;;5.10;2.92;;;;;;;-0.46;100.00;98919.25;4916584;28;20143;-57
2023/04/30 10:46:06;;;;;;;7.55;2.60;;;;;;;-0.36;100.00;98934.72;4917091;28;20052;-58
2023/04/30 10:48:40;;;;;;;3.95;2.60;;;;;;;-0.36;100.00;98935.56;4905034;28;20048;-53
2023/04/30 10:51:11;;;;;;;3.53;2.00;;;;;;;-0.34;100.00;98927.88;4913497;28;20072;-55
2023/04/30 10:53:44;;;;;;;6.35;2.50;;;;;;;-0.43;100.00;98938.94;4920461;28;20052;-58
2023/04/30 10:56:30;;;;;;;2.88;1.70;;;;;;;-0.57;100.00;98894.41;4920345;28;20059;-57
2023/04/30 10:59:03;;;;;;;4.90;2.83;;;;;;;-0.52;100.00;98908.97;4902244;28;20048;-57
2023/04/30 11:01:58;;;;;;;7.43;2.33;;;;;;;-0.38;100.00;98941.53;4917211;28;20052;-56
2023/04/30 11:04:29;;;;;;;6.28;2.00;;;;;;;-0.40;100.00;98938.09;4903976;28;20477;-56
2023/04/30 11:07:17;;;;;;;4.63;2.15;;;;;;;-0.41;100.00;98941.53;4920552;28;20054;-55
2023/04/30 11:09:50;;;;;;;5.68;1.80;;;;;;;-0.61;100.00;98902.91;4907496;28;20049;-56
2023/04/30 11:12:27;;;;;;;4.68;1.70;;;;;;;-0.41;100.00;98936.41;4908672;28;20068;-56
2023/04/30 11:15:05;;;;;;;2.40;1.48;;;;;;;-0.45;100.00;98933.81;4912823;28;20180;-57
2023/04/30 11:17:39;;;;;;;4.97;1.70;;;;;;;-0.65;100.00;98886.63;4918854;28;20059;-56
2023/04/30 11:20:14;;;;;;;5.28;2.28;;;;;;;-0.45;100.00;98926.13;4913666;28;20073;-57
2023/04/30 11:22:46;;;;;;;4.90;2.03;;;;;;;-0.71;100.00;98894.28;4915789;28;20785;-57
2023/04/30 11:25:22;;;;;;;3.60;2.60;;;;;;;-0.85;100.00;98867.69;4906186;28;20084;-56
2023/04/30 11:27:59;;;;;;;4.40;2.05;;;;;;;-0.69;100.00;98884.91;4930005;28;20048;-56
2023/04/30 11:30:34;;;;;;;3.83;2.15;;;;;;;-0.46;100.00;98924.38;4900235;27;21652;-55
2023/04/30 11:33:06;;;;;;;8.77;2.50;;;;;;;-0.54;100.00;98910.66;4912630;28;20545;-56
2023/04/30 11:35:38;;;;;;;3.33;2.25;;;;;;;-0.46;100.00;98929.50;4920148;28;20447;-57
2023/04/30 11:38:13;;;;;;;4.20;2.67;;;;;;;-0.45;100.00;98920.09;4916727;28;20061;-56
2023/04/30 11:40:44;;;;;;;4.30;2.60;;;;;;;-0.44;100.00;98927.81;4923258;28;20733;-56
2023/04/30 11:43:28;;;;;;;4.43;2.20;;;;;;;-0.44;100.00;98932.94;4925124;28;20048;-56
2023/04/30 11:46:07;;;;;;;4.20;2.60;;;;;;;-0.57;100.00;98900.38;4905371;28;20049;-57
2023/04/30 11:48:49;;;;;;;6.00;2.75;;;;;;;-0.40;100.00;98927.84;4923252;28;20039;-55
2023/04/30 11:51:30;;;;;;;3.80;2.88;;;;;;;-0.44;100.00;98925.25;4905555;28;20174;-56
2023/04/30 11:54:12;;;;;;;3.67;2.67;;;;;;;-0.40;100.00;98925.25;4905528;28;20056;-57
2023/04/30 11:57:02;;;;;;;6.32;2.97;;;;;;;-0.65;100.00;98884.06;4888385;28;20048;-56
2023/04/30 11:59:43;;;;;;;4.63;2.47;;;;;;;-0.61;100.00;98902.91;4911921;28;20064;-55
2023/04/30 12:02:27;;;;;;;4.63;2.88;;;;;;;-0.49;100.00;98924.38;4918510;28;20147;-56
2023/04/30 12:05:02;;;;;;;4.85;2.70;;;;;;;-0.63;100.00;98915.72;4906679;28;20057;-56
2023/04/30 12:07:33;;;;;;;4.57;2.97;;;;;;;-0.41;100.00;98937.25;4914836;28;20519;-56